Terminal Aerodrome Forecast
Issued by NWS Pittsburgh, PA

Current Version | Previous Version | Graphics & Text | Print | Product List | Glossary On
Versions: 1 2 3 4 5 6 7 8 9 10 11 12 13 14 15 16 17 18 19 20 21 22 23 24
856
FTUS41 KPBZ 260520
TAFPIT
TAF
KPIT 260520Z 2606/2712 25004KT P6SM SCT090
     FM261700 25011G21KT P6SM VCSH BKN090
     FM270000 27007KT P6SM BKN250
     FM270700 25004KT P6SM BKN090=

USA.gov is the U.S. government's official web portal to all federal, state and local government web resources and services.